createdAt,value
2019-03-24T00:01:22.450Z,6.47
2019-03-24T00:03:49.924Z,6.43
2019-03-24T00:06:17.429Z,6.52
2019-03-24T00:08:44.898Z,6.48
2019-03-24T00:11:12.453Z,6.41
2019-03-24T00:13:40.215Z,6.47
2019-03-24T00:16:07.736Z,6.34
2019-03-24T00:18:35.209Z,6.46
2019-03-24T00:21:02.922Z,6.39
2019-03-24T00:23:30.379Z,6.30
2019-03-24T00:25:57.894Z,6.31
2019-03-24T00:28:25.394Z,6.20
2019-03-24T00:30:52.875Z,6.25
2019-03-24T00:33:20.538Z,6.23
2019-03-24T00:35:48.030Z,6.17
2019-03-24T00:38:15.489Z,6.21
2019-03-24T00:40:42.983Z,6.11
2019-03-24T00:43:10.462Z,6.11
2019-03-24T00:45:37.963Z,6.05
2019-03-24T00:48:05.628Z,6.18
2019-03-24T00:50:33.141Z,6.15
2019-03-24T00:53:00.627Z,6.14
2019-03-24T00:55:28.139Z,6.15
2019-03-24T00:57:55.618Z,5.89
2019-03-24T01:00:41.405Z,5.90
2019-03-24T01:03:08.885Z,5.83
2019-03-24T01:05:36.392Z,5.90
2019-03-24T01:08:04.000Z,5.71
2019-03-24T01:10:31.511Z,5.72
2019-03-24T01:12:58.970Z,5.68
2019-03-24T01:15:26.468Z,5.69
2019-03-24T01:17:53.930Z,5.73
2019-03-24T01:20:21.538Z,5.73
2019-03-24T01:22:49.111Z,5.74
2019-03-24T01:25:16.611Z,5.90
2019-03-24T01:27:44.078Z,5.84
2019-03-24T01:30:12.740Z,5.85
2019-03-24T01:32:40.214Z,5.96
2019-03-24T01:35:07.841Z,5.93
2019-03-24T01:37:35.294Z,5.94
2019-03-24T01:40:03.021Z,5.94
2019-03-24T01:42:30.487Z,5.93
2019-03-24T01:44:57.980Z,6.01
2019-03-24T01:47:25.426Z,6.02
2019-03-24T01:49:52.915Z,5.84
2019-03-24T01:52:20.383Z,5.91
2019-03-24T01:54:47.842Z,5.87
2019-03-24T01:57:15.331Z,5.85
2019-03-24T01:59:42.807Z,6.01
2019-03-24T02:02:10.467Z,5.87
2019-03-24T02:04:37.947Z,5.90
2019-03-24T02:07:05.464Z,5.82
2019-03-24T02:09:32.936Z,5.82
2019-03-24T02:12:01.298Z,5.66
2019-03-24T02:14:28.779Z,5.64
2019-03-24T02:16:56.285Z,5.69
2019-03-24T02:19:23.757Z,5.71
2019-03-24T02:21:51.279Z,5.71
2019-03-24T02:24:18.763Z,5.58
2019-03-24T02:26:46.271Z,5.67
2019-03-24T02:29:13.785Z,5.58
2019-03-24T02:31:41.307Z,5.54
2019-03-24T02:34:08.764Z,5.48
2019-03-24T02:36:36.254Z,5.48
2019-03-24T02:39:06.045Z,5.50
2019-03-24T02:41:33.537Z,5.49
2019-03-24T02:44:00.994Z,5.42
2019-03-24T02:46:28.502Z,5.40
2019-03-24T02:48:55.965Z,5.40
2019-03-24T02:51:23.449Z,5.53
2019-03-24T02:53:50.935Z,5.41
2019-03-24T02:56:18.732Z,5.20
2019-03-24T02:58:46.217Z,5.22
2019-03-24T03:01:13.716Z,5.19
2019-03-24T03:03:41.179Z,5.24
2019-03-24T03:06:08.689Z,5.18
2019-03-24T03:08:36.157Z,5.11
2019-03-24T03:11:04.066Z,5.17
2019-03-24T03:13:31.553Z,5.08
2019-03-24T03:15:59.072Z,4.93
2019-03-24T03:18:26.596Z,4.87
2019-03-24T03:20:54.118Z,4.81
2019-03-24T03:23:21.665Z,4.86
2019-03-24T03:25:49.213Z,4.91
2019-03-24T03:28:16.803Z,4.94
2019-03-24T03:30:44.341Z,4.94
2019-03-24T03:33:12.182Z,4.78
2019-03-24T03:35:39.745Z,4.66
2019-03-24T03:38:07.249Z,4.57
2019-03-24T03:40:34.781Z,4.68
2019-03-24T03:43:02.257Z,4.60
2019-03-24T03:45:29.781Z,4.50
2019-03-24T03:47:57.256Z,4.53
2019-03-24T03:50:24.750Z,4.47
2019-03-24T03:52:52.222Z,4.55
2019-03-24T03:55:19.709Z,4.44
2019-03-24T03:57:47.226Z,4.39
2019-03-24T04:00:14.830Z,4.35
2019-03-24T04:02:42.371Z,4.53
2019-03-24T04:05:10.084Z,4.49
2019-03-24T04:07:37.602Z,4.29
2019-03-24T04:10:06.064Z,4.47
2019-03-24T04:12:33.577Z,4.49
2019-03-24T04:15:01.103Z,4.39
2019-03-24T04:17:28.698Z,4.34
2019-03-24T04:19:56.286Z,4.25
2019-03-24T04:22:23.814Z,4.12
2019-03-24T04:24:51.273Z,4.07
2019-03-24T04:27:18.786Z,4.09
2019-03-24T04:29:46.290Z,4.14
2019-03-24T04:32:13.797Z,4.26
2019-03-24T04:34:41.324Z,4.40
2019-03-24T04:37:08.845Z,4.29
2019-03-24T04:39:36.315Z,4.24
2019-03-24T04:42:03.892Z,4.20
2019-03-24T04:44:31.403Z,4.16
2019-03-24T04:46:58.963Z,4.09
2019-03-24T04:49:26.463Z,4.09
2019-03-24T04:51:54.022Z,3.90
2019-03-24T04:54:21.517Z,3.90
2019-03-24T04:56:49.029Z,3.76
2019-03-24T04:59:16.552Z,3.78
2019-03-24T05:01:44.052Z,3.68
2019-03-24T05:04:11.566Z,3.74
2019-03-24T05:06:39.927Z,3.83
2019-03-24T05:09:07.421Z,3.92
2019-03-24T05:11:34.970Z,3.93
2019-03-24T05:14:02.463Z,3.87
2019-03-24T05:16:29.983Z,3.75
2019-03-24T05:18:57.464Z,3.67
2019-03-24T05:21:24.968Z,3.71
2019-03-24T05:23:52.454Z,3.85
2019-03-24T05:26:19.956Z,3.75
2019-03-24T05:28:47.436Z,3.61
2019-03-24T05:31:14.939Z,3.63
2019-03-24T05:33:42.456Z,3.68
2019-03-24T05:36:09.968Z,3.64
2019-03-24T05:38:37.472Z,3.65
2019-03-24T05:41:05.114Z,3.67
2019-03-24T05:43:32.663Z,3.67
2019-03-24T05:46:00.136Z,3.75
2019-03-24T05:48:27.654Z,3.69
2019-03-24T05:50:55.136Z,3.67
2019-03-24T05:53:22.697Z,3.69
2019-03-24T05:55:50.281Z,3.77
2019-03-24T05:58:17.978Z,3.82
2019-03-24T06:00:45.475Z,3.83
2019-03-24T06:03:13.116Z,3.78
2019-03-24T06:05:41.259Z,3.78
2019-03-24T06:08:08.832Z,3.70
2019-03-24T06:10:36.374Z,3.65
2019-03-24T06:13:03.958Z,3.68
2019-03-24T06:15:31.487Z,3.77
2019-03-24T06:17:58.981Z,3.87
2019-03-24T06:20:26.453Z,4.12
2019-03-24T06:22:54.006Z,4.15
2019-03-24T06:25:21.482Z,3.96
2019-03-24T06:27:49.052Z,4.06
2019-03-24T06:30:16.540Z,4.07
2019-03-24T06:32:44.064Z,4.09
2019-03-24T06:35:11.577Z,3.99
2019-03-24T06:37:39.075Z,4.03
2019-03-24T06:40:08.386Z,4.10
2019-03-24T06:42:35.916Z,4.39
2019-03-24T06:45:03.741Z,4.41
2019-03-24T06:47:31.258Z,4.40
2019-03-24T06:49:58.762Z,4.54
2019-03-24T06:52:26.263Z,4.57
2019-03-24T06:54:53.765Z,4.73
2019-03-24T06:57:21.264Z,4.70
2019-03-24T06:59:48.861Z,4.68
2019-03-24T07:02:16.963Z,4.71
2019-03-24T07:04:44.439Z,4.69
2019-03-24T07:07:12.320Z,4.78
2019-03-24T07:09:39.866Z,4.85
2019-03-24T07:12:07.391Z,4.86
2019-03-24T07:14:35.066Z,4.84
2019-03-24T07:17:04.090Z,4.89
2019-03-24T07:19:31.563Z,5.00
2019-03-24T07:21:59.077Z,4.99
2019-03-24T07:24:26.565Z,4.98
2019-03-24T07:26:54.122Z,5.30
2019-03-24T07:29:21.624Z,5.33
2019-03-24T07:31:49.196Z,5.37
2019-03-24T07:34:16.757Z,5.37
2019-03-24T07:36:44.363Z,5.49
2019-03-24T07:39:12.130Z,5.64
2019-03-24T07:41:39.653Z,5.71
2019-03-24T07:44:07.301Z,5.68
2019-03-24T07:46:35.092Z,5.77
2019-03-24T07:49:02.601Z,5.56
2019-03-24T07:51:30.133Z,5.61
2019-03-24T07:53:57.623Z,5.81
2019-03-24T07:56:25.128Z,5.89
2019-03-24T07:58:52.732Z,5.78
2019-03-24T08:01:20.216Z,5.79
2019-03-24T08:03:47.759Z,5.77
2019-03-24T08:06:15.298Z,6.01
2019-03-24T08:08:44.407Z,5.93
2019-03-24T08:11:12.161Z,6.12
2019-03-24T08:13:39.773Z,6.18
2019-03-24T08:16:07.306Z,6.35
2019-03-24T08:18:34.842Z,6.37
2019-03-24T08:21:02.330Z,6.31
2019-03-24T08:23:29.848Z,6.23
2019-03-24T08:25:57.365Z,6.44
2019-03-24T08:28:24.880Z,6.55
2019-03-24T08:30:52.370Z,6.75
2019-03-24T08:33:19.894Z,6.69
2019-03-24T08:35:47.396Z,6.92
2019-03-24T08:38:14.971Z,6.83
2019-03-24T08:40:42.461Z,6.91
2019-03-24T08:43:09.982Z,6.92
2019-03-24T08:45:37.460Z,6.94
2019-03-24T08:48:05.012Z,6.88
2019-03-24T08:50:32.462Z,6.87
2019-03-24T08:53:00.125Z,6.99
2019-03-24T08:55:27.883Z,7.19
2019-03-24T08:57:55.586Z,6.94
2019-03-24T09:00:30.512Z,6.95
2019-03-24T09:02:52.545Z,7.02
2019-03-24T09:05:20.033Z,7.00
2019-03-24T09:07:47.573Z,7.13
2019-03-24T09:10:15.063Z,7.17
2019-03-24T09:12:42.597Z,7.20
2019-03-24T09:15:10.077Z,7.39
2019-03-24T09:17:37.726Z,7.35
2019-03-24T09:20:05.761Z,7.41
2019-03-24T09:22:33.295Z,7.65
2019-03-24T09:25:00.770Z,7.68
2019-03-24T09:27:28.306Z,7.73
2019-03-24T09:29:55.971Z,7.92
2019-03-24T09:32:23.490Z,7.91
2019-03-24T09:34:51.021Z,7.92
2019-03-24T09:37:18.648Z,8.16
2019-03-24T09:39:46.162Z,8.19
2019-03-24T09:42:13.704Z,8.20
2019-03-24T09:44:41.201Z,8.17
2019-03-24T09:47:08.753Z,8.62
2019-03-24T09:49:36.289Z,8.46
2019-03-24T09:52:03.803Z,8.55
2019-03-24T09:54:31.370Z,8.50
2019-03-24T09:56:59.098Z,8.40
2019-03-24T09:59:26.656Z,8.43
2019-03-24T10:01:54.191Z,8.65
2019-03-24T10:04:21.711Z,8.99
2019-03-24T10:06:49.267Z,9.12
2019-03-24T10:09:16.809Z,9.11
2019-03-24T10:11:44.342Z,9.06
2019-03-24T10:14:11.897Z,9.08
2019-03-24T10:16:39.404Z,9.20
2019-03-24T10:19:13.861Z,9.19
2019-03-24T10:21:36.361Z,9.11
2019-03-24T10:24:03.886Z,9.48
2019-03-24T10:26:31.384Z,9.84
2019-03-24T10:28:58.918Z,9.77
2019-03-24T10:31:26.426Z,9.94
2019-03-24T10:33:54.064Z,10.35
2019-03-24T10:36:21.573Z,10.36
2019-03-24T10:38:49.105Z,10.19
2019-03-24T10:41:16.626Z,10.14
2019-03-24T10:43:44.151Z,10.21
2019-03-24T10:46:11.659Z,10.18
2019-03-24T10:48:39.244Z,10.57
2019-03-24T10:51:06.857Z,10.57
2019-03-24T10:53:34.374Z,10.51
2019-03-24T10:56:01.866Z,10.76
2019-03-24T10:58:29.703Z,11.14
2019-03-24T11:00:57.524Z,10.82
2019-03-24T11:03:25.209Z,10.58
2019-03-24T11:05:52.847Z,10.15
2019-03-24T11:08:20.335Z,10.62
2019-03-24T11:10:47.923Z,10.66
2019-03-24T11:13:15.511Z,11.02
2019-03-24T11:15:43.025Z,11.12
2019-03-24T11:18:10.514Z,10.90
2019-03-24T11:20:38.056Z,10.77
2019-03-24T11:23:05.610Z,11.14
2019-03-24T11:25:33.121Z,11.40
2019-03-24T11:28:00.601Z,11.21
2019-03-24T11:30:28.372Z,11.13
2019-03-24T11:32:55.958Z,11.45
2019-03-24T11:35:23.510Z,11.42
2019-03-24T11:37:51.011Z,11.98
2019-03-24T11:40:18.701Z,12.18
2019-03-24T11:42:46.306Z,12.11
2019-03-24T11:45:15.370Z,12.15
2019-03-24T11:47:42.860Z,12.07
2019-03-24T11:50:10.928Z,11.35
2019-03-24T11:52:38.443Z,11.66
2019-03-24T11:55:07.271Z,11.93
2019-03-24T11:57:34.897Z,11.61
2019-03-24T12:00:03.282Z,11.88
2019-03-24T12:02:31.543Z,12.12
2019-03-24T12:04:59.180Z,12.38
2019-03-24T12:07:26.689Z,12.55
2019-03-24T12:09:54.323Z,12.26
2019-03-24T12:12:21.983Z,12.68
2019-03-24T12:14:50.159Z,12.81
2019-03-24T12:17:17.820Z,11.98
2019-03-24T12:19:56.274Z,11.79
2019-03-24T12:22:15.230Z,12.19
2019-03-24T12:24:42.879Z,12.37
2019-03-24T12:27:10.378Z,12.39
2019-03-24T12:29:37.923Z,12.94
2019-03-24T12:32:05.582Z,13.20
2019-03-24T12:34:33.121Z,13.06
2019-03-24T12:37:00.651Z,13.26
2019-03-24T12:39:28.637Z,12.86
2019-03-24T12:41:56.163Z,12.39
2019-03-24T12:44:23.678Z,12.66
2019-03-24T12:46:51.229Z,12.48
2019-03-24T12:49:18.781Z,12.76
2019-03-24T12:51:46.328Z,12.59
2019-03-24T12:54:14.017Z,12.37
2019-03-24T12:56:41.653Z,12.38
2019-03-24T12:59:09.180Z,12.41
2019-03-24T13:01:36.738Z,12.34
2019-03-24T13:04:04.487Z,12.28
2019-03-24T13:06:32.104Z,12.36
2019-03-24T13:08:59.720Z,12.19
2019-03-24T13:11:28.351Z,12.14
2019-03-24T13:13:56.358Z,11.94
2019-03-24T13:16:23.953Z,11.83
2019-03-24T13:18:51.505Z,12.08
2019-03-24T13:21:19.245Z,12.09
2019-03-24T13:23:46.975Z,11.98
2019-03-24T13:26:15.011Z,12.18
2019-03-24T13:28:42.510Z,12.54
2019-03-24T13:31:10.040Z,12.70
2019-03-24T13:33:37.826Z,12.73
2019-03-24T13:36:10.561Z,12.51
2019-03-24T13:38:38.148Z,12.75
2019-03-24T13:41:06.511Z,12.85
2019-03-24T13:43:34.044Z,12.83
2019-03-24T13:46:01.913Z,12.71
2019-03-24T13:48:29.402Z,12.05
2019-03-24T13:50:56.923Z,12.94
2019-03-24T13:53:24.472Z,13.27
2019-03-24T13:55:52.040Z,13.46
2019-03-24T13:58:19.635Z,13.28
2019-03-24T14:00:47.232Z,12.95
2019-03-24T14:03:14.726Z,13.43
2019-03-24T14:05:42.298Z,13.27
2019-03-24T14:08:09.829Z,12.94
2019-03-24T14:10:37.395Z,13.57
2019-03-24T14:13:04.885Z,14.03
2019-03-24T14:15:32.394Z,13.99
2019-03-24T14:17:59.917Z,13.91
2019-03-24T14:20:27.440Z,14.05
2019-03-24T14:22:55.410Z,13.80
2019-03-24T14:25:23.043Z,13.83
2019-03-24T14:27:50.701Z,14.39
2019-03-24T14:30:28.372Z,14.06
2019-03-24T14:32:55.930Z,13.18
2019-03-24T14:35:23.438Z,13.38
2019-03-24T14:37:50.981Z,13.60
2019-03-24T14:40:18.530Z,14.08
2019-03-24T14:42:46.134Z,13.60
2019-03-24T14:45:13.645Z,14.02
2019-03-24T14:47:41.209Z,14.22
2019-03-24T14:50:09.016Z,13.66
2019-03-24T14:52:36.571Z,13.89
2019-03-24T14:55:04.647Z,13.25
2019-03-24T14:57:32.189Z,13.86
2019-03-24T14:59:59.770Z,13.66
2019-03-24T15:02:27.372Z,13.20
2019-03-24T15:04:54.980Z,13.66
2019-03-24T15:07:22.688Z,13.48
2019-03-24T15:09:50.282Z,13.28
2019-03-24T15:12:17.912Z,13.39
2019-03-24T15:14:45.499Z,13.41
2019-03-24T15:17:13.141Z,13.85
2019-03-24T15:19:40.693Z,13.61
2019-03-24T15:22:08.363Z,13.65
2019-03-24T15:24:35.892Z,13.80
2019-03-24T15:27:04.120Z,13.95
2019-03-24T15:29:31.798Z,14.15
2019-03-24T15:31:59.387Z,13.70
2019-03-24T15:34:26.971Z,13.86
2019-03-24T15:36:54.506Z,13.84
2019-03-24T15:39:22.255Z,13.75
2019-03-24T15:41:49.829Z,14.37
2019-03-24T15:44:17.345Z,13.93
2019-03-24T15:46:44.973Z,13.56
2019-03-24T15:49:12.524Z,13.30
2019-03-24T15:51:40.163Z,13.44
2019-03-24T15:54:07.849Z,13.74
2019-03-24T15:56:35.393Z,13.65
2019-03-24T15:59:03.212Z,13.65
2019-03-24T16:01:30.746Z,13.55
2019-03-24T16:03:58.291Z,13.61
2019-03-24T16:06:25.962Z,13.11
2019-03-24T16:08:53.537Z,13.01
2019-03-24T16:11:21.132Z,12.79
2019-03-24T16:13:48.693Z,12.51
2019-03-24T16:16:16.253Z,12.52
2019-03-24T16:18:53.061Z,12.75
2019-03-24T16:21:27.654Z,12.55
2019-03-24T16:23:50.123Z,12.10
2019-03-24T16:26:17.662Z,11.68
2019-03-24T16:28:45.182Z,11.67
2019-03-24T16:31:12.769Z,11.37
2019-03-24T16:33:40.350Z,11.31
2019-03-24T16:36:07.868Z,11.33
2019-03-24T16:38:35.392Z,11.34
2019-03-24T16:41:02.901Z,11.27
2019-03-24T16:43:30.402Z,11.22
2019-03-24T16:45:57.901Z,11.21
2019-03-24T16:48:36.206Z,11.04
2019-03-24T16:50:54.855Z,11.03
2019-03-24T16:53:22.547Z,11.03
2019-03-24T16:55:50.165Z,10.94
2019-03-24T16:58:17.737Z,10.84
2019-03-24T17:00:45.276Z,10.65
2019-03-24T17:03:12.822Z,10.72
2019-03-24T17:05:40.309Z,10.90
2019-03-24T17:08:07.932Z,10.91
2019-03-24T17:10:35.429Z,10.80
2019-03-24T17:13:02.979Z,10.64
2019-03-24T17:15:30.543Z,10.59
2019-03-24T17:17:58.070Z,10.61
2019-03-24T17:20:25.601Z,10.48
2019-03-24T17:22:53.174Z,10.42
2019-03-24T17:25:20.701Z,10.39
2019-03-24T17:27:48.188Z,10.36
2019-03-24T17:30:16.051Z,10.14
2019-03-24T17:32:43.551Z,10.22
2019-03-24T17:35:11.293Z,10.18
2019-03-24T17:37:38.833Z,10.08
2019-03-24T17:40:08.000Z,9.97
2019-03-24T17:42:35.512Z,9.91
2019-03-24T17:45:03.493Z,9.82
2019-03-24T17:47:31.038Z,9.88
2019-03-24T17:49:58.684Z,9.83
2019-03-24T17:52:26.392Z,9.90
2019-03-24T17:54:54.113Z,9.67
2019-03-24T17:57:21.658Z,9.84
2019-03-24T17:59:49.238Z,9.85
2019-03-24T18:02:16.783Z,9.78
2019-03-24T18:04:47.341Z,9.67
2019-03-24T18:07:14.822Z,9.50
2019-03-24T18:09:42.334Z,9.54
2019-03-24T18:12:09.833Z,9.41
2019-03-24T18:14:37.366Z,9.43
2019-03-24T18:17:04.882Z,9.08
2019-03-24T18:19:32.438Z,9.07
2019-03-24T18:21:59.918Z,9.24
2019-03-24T18:24:27.488Z,9.10
2019-03-24T18:26:54.962Z,9.13
2019-03-24T18:29:22.506Z,9.01
2019-03-24T18:31:50.013Z,9.01
2019-03-24T18:34:17.609Z,8.82
2019-03-24T18:36:45.117Z,9.06
2019-03-24T18:39:12.702Z,8.85
2019-03-24T18:41:40.193Z,8.88
2019-03-24T18:44:07.753Z,8.77
2019-03-24T18:46:35.424Z,8.60
2019-03-24T18:49:03.091Z,8.68
2019-03-24T18:51:30.691Z,8.66
2019-03-24T18:53:58.258Z,8.51
2019-03-24T18:56:25.839Z,8.59
2019-03-24T18:58:53.368Z,8.38
2019-03-24T19:01:20.892Z,8.44
2019-03-24T19:03:48.414Z,8.52
2019-03-24T19:06:16.042Z,8.38
2019-03-24T19:08:43.587Z,8.31
2019-03-24T19:11:11.109Z,8.19
2019-03-24T19:13:38.621Z,8.01
2019-03-24T19:16:06.120Z,8.03
2019-03-24T19:18:33.699Z,7.97
2019-03-24T19:21:02.918Z,7.99
2019-03-24T19:23:30.451Z,7.96
2019-03-24T19:25:59.666Z,7.80
2019-03-24T19:28:27.216Z,7.76
2019-03-24T19:30:54.742Z,7.65
2019-03-24T19:33:22.261Z,7.69
2019-03-24T19:35:49.774Z,7.62
2019-03-24T19:38:17.286Z,7.66
2019-03-24T19:40:44.891Z,7.46
2019-03-24T19:43:12.421Z,7.64
2019-03-24T19:45:39.937Z,7.52
2019-03-24T19:48:07.456Z,7.38
2019-03-24T19:50:34.981Z,7.33
2019-03-24T19:53:02.721Z,7.38
2019-03-24T19:55:30.250Z,7.35
2019-03-24T19:57:57.848Z,7.25
2019-03-24T20:00:25.549Z,7.21
2019-03-24T20:02:53.020Z,7.23
2019-03-24T20:05:20.553Z,7.21
2019-03-24T20:07:48.536Z,7.24
2019-03-24T20:10:16.169Z,7.24
2019-03-24T20:12:43.791Z,7.18
2019-03-24T20:15:11.411Z,7.20
2019-03-24T20:17:38.910Z,7.23
2019-03-24T20:20:06.497Z,7.18
2019-03-24T20:22:34.012Z,7.12
2019-03-24T20:25:01.526Z,7.11
2019-03-24T20:27:29.170Z,7.18
2019-03-24T20:29:56.656Z,7.25
2019-03-24T20:32:24.169Z,7.13
2019-03-24T20:34:51.725Z,7.02
2019-03-24T20:37:20.610Z,6.99
2019-03-24T20:39:48.105Z,6.95
2019-03-24T20:42:15.660Z,6.93
2019-03-24T20:44:43.156Z,6.87
2019-03-24T20:47:10.664Z,6.78
2019-03-24T20:49:40.849Z,6.76
2019-03-24T20:52:09.583Z,6.81
2019-03-24T20:54:37.374Z,6.79
2019-03-24T20:57:04.932Z,6.82
2019-03-24T20:59:32.437Z,6.72
2019-03-24T21:01:59.984Z,6.62
2019-03-24T21:04:27.486Z,6.70
2019-03-24T21:06:55.048Z,6.61
2019-03-24T21:09:22.889Z,6.63
2019-03-24T21:11:50.655Z,6.59
2019-03-24T21:14:18.222Z,6.63
2019-03-24T21:16:46.093Z,6.53
2019-03-24T21:19:13.646Z,6.49
2019-03-24T21:21:41.285Z,6.43
2019-03-24T21:24:08.836Z,6.42
2019-03-24T21:26:36.354Z,6.43
2019-03-24T21:29:03.990Z,6.26
2019-03-24T21:31:31.727Z,6.38
2019-03-24T21:33:59.354Z,6.28
2019-03-24T21:36:26.946Z,6.41
2019-03-24T21:38:54.632Z,6.38
2019-03-24T21:41:22.344Z,6.47
2019-03-24T21:43:50.159Z,6.27
2019-03-24T21:46:17.988Z,6.31
2019-03-24T21:48:45.657Z,6.21
2019-03-24T21:51:13.389Z,6.19
2019-03-24T21:53:41.146Z,6.05
2019-03-24T21:56:08.804Z,6.07
2019-03-24T21:58:36.525Z,6.04
2019-03-24T22:01:04.347Z,6.02
2019-03-24T22:03:32.095Z,5.93
2019-03-24T22:05:59.625Z,6.09
2019-03-24T22:08:27.626Z,5.94
2019-03-24T22:10:55.218Z,5.83
2019-03-24T22:13:22.846Z,5.92
2019-03-24T22:15:50.519Z,5.89
2019-03-24T22:18:18.287Z,6.01
2019-03-24T22:20:49.088Z,5.86
2019-03-24T22:23:15.394Z,5.93
2019-03-24T22:25:42.897Z,5.74
2019-03-24T22:28:10.463Z,5.82
2019-03-24T22:30:37.956Z,5.65
2019-03-24T22:33:05.514Z,5.56
2019-03-24T22:35:33.024Z,5.51
2019-03-24T22:38:02.357Z,5.53
2019-03-24T22:40:29.831Z,5.42
2019-03-24T22:42:57.328Z,5.51
2019-03-24T22:45:24.842Z,5.36
2019-03-24T22:47:52.406Z,5.37
2019-03-24T22:50:19.900Z,5.57
2019-03-24T22:52:47.427Z,5.55
2019-03-24T22:55:15.007Z,5.41
2019-03-24T22:57:42.549Z,5.45
2019-03-24T23:00:17.524Z,5.35
2019-03-24T23:02:45.036Z,5.22
2019-03-24T23:05:12.612Z,5.20
2019-03-24T23:07:40.124Z,5.16
2019-03-24T23:10:07.698Z,5.24
2019-03-24T23:12:35.217Z,5.23
2019-03-24T23:15:02.774Z,5.21
2019-03-24T23:17:30.287Z,5.14
2019-03-24T23:19:57.862Z,5.21
2019-03-24T23:22:25.408Z,5.30
2019-03-24T23:24:52.996Z,5.28
2019-03-24T23:27:20.567Z,5.21
2019-03-24T23:29:48.045Z,5.07
2019-03-24T23:32:15.568Z,5.16
2019-03-24T23:34:43.122Z,5.26
2019-03-24T23:37:10.592Z,5.21
2019-03-24T23:39:38.090Z,4.92
2019-03-24T23:42:05.555Z,5.08
2019-03-24T23:44:33.049Z,5.01
2019-03-24T23:47:00.568Z,4.96
2019-03-24T23:49:28.240Z,4.94
2019-03-24T23:51:55.776Z,5.01
2019-03-24T23:54:27.251Z,5.05
2019-03-24T23:56:52.723Z,4.96
2019-03-24T23:59:20.281Z,4.83
